sensor_id;sensor_type;location;lat;lon;timestamp;P1;durP1;ratioP1;P2;durP2;ratioP2
10557;SDS011;5327;47.238;-2.304;2023-02-04T00:00:13;7.20;;;4.13;;
10557;SDS011;5327;47.238;-2.304;2023-02-04T00:02:40;5.67;;;4.50;;
10557;SDS011;5327;47.238;-2.304;2023-02-04T00:05:06;5.87;;;4.27;;
10557;SDS011;5327;47.238;-2.304;2023-02-04T00:07:33;6.73;;;4.50;;
10557;SDS011;5327;47.238;-2.304;2023-02-04T00:09:59;7.80;;;4.33;;
10557;SDS011;5327;47.238;-2.304;2023-02-04T00:12:25;6.53;;;4.50;;
10557;SDS011;5327;47.238;-2.304;2023-02-04T00:14:51;5.63;;;4.23;;
10557;SDS011;5327;47.238;-2.304;2023-02-04T00:17:17;6.63;;;3.60;;
10557;SDS011;5327;47.238;-2.304;2023-02-04T00:19:43;8.50;;;5.17;;
10557;SDS011;5327;47.238;-2.304;2023-02-04T00:22:09;8.10;;;4.83;;
10557;SDS011;5327;47.238;-2.304;2023-02-04T00:24:35;5.87;;;3.83;;
10557;SDS011;5327;47.238;-2.304;2023-02-04T00:27:02;7.47;;;4.17;;
10557;SDS011;5327;47.238;-2.304;2023-02-04T00:29:28;8.53;;;5.70;;
10557;SDS011;5327;47.238;-2.304;2023-02-04T00:31:54;5.70;;;3.30;;
10557;SDS011;5327;47.238;-2.304;2023-02-04T00:34:20;3.40;;;2.97;;
10557;SDS011;5327;47.238;-2.304;2023-02-04T00:36:46;4.17;;;3.77;;
10557;SDS011;5327;47.238;-2.304;2023-02-04T00:39:13;6.23;;;4.20;;
10557;SDS011;5327;47.238;-2.304;2023-02-04T00:41:39;6.07;;;4.53;;
10557;SDS011;5327;47.238;-2.304;2023-02-04T00:44:05;5.90;;;4.20;;
10557;SDS011;5327;47.238;-2.304;2023-02-04T00:46:31;25.13;;;4.70;;
10557;SDS011;5327;47.238;-2.304;2023-02-04T00:48:57;8.40;;;4.00;;
10557;SDS011;5327;47.238;-2.304;2023-02-04T00:51:23;5.07;;;3.57;;
10557;SDS011;5327;47.238;-2.304;2023-02-04T00:53:49;5.53;;;3.77;;
10557;SDS011;5327;47.238;-2.304;2023-02-04T00:56:15;6.07;;;4.90;;
10557;SDS011;5327;47.238;-2.304;2023-02-04T00:58:41;7.33;;;4.23;;
10557;SDS011;5327;47.238;-2.304;2023-02-04T01:01:07;7.87;;;4.60;;
10557;SDS011;5327;47.238;-2.304;2023-02-04T01:03:33;7.57;;;4.47;;
10557;SDS011;5327;47.238;-2.304;2023-02-04T01:05:59;6.90;;;4.80;;
10557;SDS011;5327;47.238;-2.304;2023-02-04T01:08:25;4.40;;;3.40;;
10557;SDS011;5327;47.238;-2.304;2023-02-04T01:10:51;5.30;;;3.37;;
10557;SDS011;5327;47.238;-2.304;2023-02-04T01:13:17;7.43;;;4.10;;
10557;SDS011;5327;47.238;-2.304;2023-02-04T01:15:43;6.13;;;4.23;;
10557;SDS011;5327;47.238;-2.304;2023-02-04T01:18:11;4.40;;;3.77;;
10557;SDS011;5327;47.238;-2.304;2023-02-04T01:20:37;6.80;;;4.40;;
10557;SDS011;5327;47.238;-2.304;2023-02-04T01:23:03;8.77;;;4.90;;
10557;SDS011;5327;47.238;-2.304;2023-02-04T01:25:29;4.50;;;3.40;;
10557;SDS011;5327;47.238;-2.304;2023-02-04T01:27:55;4.70;;;3.57;;
10557;SDS011;5327;47.238;-2.304;2023-02-04T01:30:21;5.00;;;3.87;;
10557;SDS011;5327;47.238;-2.304;2023-02-04T01:32:47;7.73;;;4.87;;
10557;SDS011;5327;47.238;-2.304;2023-02-04T01:35:13;5.33;;;3.60;;
10557;SDS011;5327;47.238;-2.304;2023-02-04T01:37:39;5.50;;;3.83;;
10557;SDS011;5327;47.238;-2.304;2023-02-04T01:40:05;10.53;;;5.93;;
10557;SDS011;5327;47.238;-2.304;2023-02-04T01:42:31;13.13;;;5.40;;
10557;SDS011;5327;47.238;-2.304;2023-02-04T01:44:58;7.23;;;4.20;;
10557;SDS011;5327;47.238;-2.304;2023-02-04T01:47:24;9.23;;;4.33;;
10557;SDS011;5327;47.238;-2.304;2023-02-04T01:49:51;10.57;;;4.83;;
10557;SDS011;5327;47.238;-2.304;2023-02-04T01:52:17;5.73;;;3.40;;
10557;SDS011;5327;47.238;-2.304;2023-02-04T01:54:43;7.27;;;4.03;;
10557;SDS011;5327;47.238;-2.304;2023-02-04T01:57:12;4.53;;;2.77;;
10557;SDS011;5327;47.238;-2.304;2023-02-04T01:59:39;6.87;;;3.60;;
10557;SDS011;5327;47.238;-2.304;2023-02-04T02:04:52;6.13;;;2.93;;
10557;SDS011;5327;47.238;-2.304;2023-02-04T02:07:18;7.30;;;3.10;;
10557;SDS011;5327;47.238;-2.304;2023-02-04T02:09:44;10.30;;;3.80;;
10557;SDS011;5327;47.238;-2.304;2023-02-04T02:12:10;3.93;;;2.50;;
10557;SDS011;5327;47.238;-2.304;2023-02-04T02:14:36;3.13;;;2.73;;
10557;SDS011;5327;47.238;-2.304;2023-02-04T02:17:02;6.00;;;3.13;;
10557;SDS011;5327;47.238;-2.304;2023-02-04T02:19:31;3.10;;;2.30;;
10557;SDS011;5327;47.238;-2.304;2023-02-04T02:22:02;2.50;;;2.30;;
10557;SDS011;5327;47.238;-2.304;2023-02-04T02:24:30;2.47;;;2.27;;
10557;SDS011;5327;47.238;-2.304;2023-02-04T02:26:57;3.63;;;2.60;;
10557;SDS011;5327;47.238;-2.304;2023-02-04T02:29:24;2.40;;;2.10;;
10557;SDS011;5327;47.238;-2.304;2023-02-04T02:31:51;3.07;;;2.67;;
10557;SDS011;5327;47.238;-2.304;2023-02-04T02:34:18;2.90;;;2.10;;
10557;SDS011;5327;47.238;-2.304;2023-02-04T02:36:44;3.40;;;2.50;;
10557;SDS011;5327;47.238;-2.304;2023-02-04T02:39:10;5.80;;;2.20;;
10557;SDS011;5327;47.238;-2.304;2023-02-04T02:41:36;4.90;;;2.43;;
10557;SDS011;5327;47.238;-2.304;2023-02-04T02:44:02;3.87;;;2.73;;
10557;SDS011;5327;47.238;-2.304;2023-02-04T02:46:29;7.83;;;2.33;;
10557;SDS011;5327;47.238;-2.304;2023-02-04T02:48:55;5.20;;;2.80;;
10557;SDS011;5327;47.238;-2.304;2023-02-04T02:51:21;6.93;;;3.07;;
10557;SDS011;5327;47.238;-2.304;2023-02-04T02:53:47;2.67;;;2.23;;
10557;SDS011;5327;47.238;-2.304;2023-02-04T02:56:14;5.93;;;2.73;;
10557;SDS011;5327;47.238;-2.304;2023-02-04T02:58:40;5.37;;;2.87;;
10557;SDS011;5327;47.238;-2.304;2023-02-04T03:01:07;3.17;;;2.13;;
10557;SDS011;5327;47.238;-2.304;2023-02-04T03:03:34;7.47;;;3.50;;
10557;SDS011;5327;47.238;-2.304;2023-02-04T03:06:06;5.97;;;2.70;;
10557;SDS011;5327;47.238;-2.304;2023-02-04T03:08:36;2.63;;;1.90;;
10557;SDS011;5327;47.238;-2.304;2023-02-04T03:11:03;2.77;;;1.90;;
10557;SDS011;5327;47.238;-2.304;2023-02-04T03:13:29;4.20;;;2.63;;
10557;SDS011;5327;47.238;-2.304;2023-02-04T03:15:58;4.20;;;2.40;;
10557;SDS011;5327;47.238;-2.304;2023-02-04T03:18:24;5.60;;;2.90;;
10557;SDS011;5327;47.238;-2.304;2023-02-04T03:20:51;4.53;;;2.57;;
10557;SDS011;5327;47.238;-2.304;2023-02-04T03:23:17;3.20;;;2.23;;
10557;SDS011;5327;47.238;-2.304;2023-02-04T03:25:44;7.60;;;2.50;;
10557;SDS011;5327;47.238;-2.304;2023-02-04T03:28:10;4.70;;;3.10;;
10557;SDS011;5327;47.238;-2.304;2023-02-04T03:30:36;3.77;;;2.83;;
10557;SDS011;5327;47.238;-2.304;2023-02-04T03:33:03;5.20;;;2.73;;
10557;SDS011;5327;47.238;-2.304;2023-02-04T03:35:29;3.10;;;2.07;;
10557;SDS011;5327;47.238;-2.304;2023-02-04T03:37:55;2.67;;;2.37;;
10557;SDS011;5327;47.238;-2.304;2023-02-04T03:40:21;4.10;;;2.87;;
10557;SDS011;5327;47.238;-2.304;2023-02-04T03:42:47;4.40;;;2.70;;
10557;SDS011;5327;47.238;-2.304;2023-02-04T03:45:13;9.77;;;4.20;;
10557;SDS011;5327;47.238;-2.304;2023-02-04T03:47:39;3.00;;;2.70;;
10557;SDS011;5327;47.238;-2.304;2023-02-04T03:50:06;7.53;;;3.60;;
10557;SDS011;5327;47.238;-2.304;2023-02-04T03:52:32;5.53;;;3.50;;
10557;SDS011;5327;47.238;-2.304;2023-02-04T03:54:58;4.50;;;2.60;;
10557;SDS011;5327;47.238;-2.304;2023-02-04T03:57:24;5.40;;;3.20;;
10557;SDS011;5327;47.238;-2.304;2023-02-04T03:59:50;5.93;;;3.90;;
10557;SDS011;5327;47.238;-2.304;2023-02-04T04:02:16;3.27;;;2.60;;
10557;SDS011;5327;47.238;-2.304;2023-02-04T04:04:42;2.90;;;2.40;;
10557;SDS011;5327;47.238;-2.304;2023-02-04T04:07:08;3.57;;;3.10;;
10557;SDS011;5327;47.238;-2.304;2023-02-04T04:09:34;3.37;;;2.77;;
10557;SDS011;5327;47.238;-2.304;2023-02-04T04:12:00;5.03;;;3.03;;
10557;SDS011;5327;47.238;-2.304;2023-02-04T04:14:27;4.50;;;3.17;;
10557;SDS011;5327;47.238;-2.304;2023-02-04T04:16:53;3.90;;;3.40;;
10557;SDS011;5327;47.238;-2.304;2023-02-04T04:19:19;3.83;;;3.00;;
10557;SDS011;5327;47.238;-2.304;2023-02-04T04:21:45;7.27;;;3.27;;
10557;SDS011;5327;47.238;-2.304;2023-02-04T04:24:11;6.63;;;3.40;;
10557;SDS011;5327;47.238;-2.304;2023-02-04T04:26:37;5.03;;;3.70;;
10557;SDS011;5327;47.238;-2.304;2023-02-04T04:29:03;3.63;;;3.07;;
10557;SDS011;5327;47.238;-2.304;2023-02-04T04:31:29;4.27;;;3.30;;
10557;SDS011;5327;47.238;-2.304;2023-02-04T04:33:56;5.60;;;3.50;;
10557;SDS011;5327;47.238;-2.304;2023-02-04T04:36:22;4.30;;;3.13;;
10557;SDS011;5327;47.238;-2.304;2023-02-04T04:38:48;4.30;;;3.27;;
10557;SDS011;5327;47.238;-2.304;2023-02-04T04:41:14;5.47;;;3.70;;
10557;SDS011;5327;47.238;-2.304;2023-02-04T04:43:40;5.03;;;3.53;;
10557;SDS011;5327;47.238;-2.304;2023-02-04T04:46:06;5.73;;;3.23;;
10557;SDS011;5327;47.238;-2.304;2023-02-04T04:48:32;6.70;;;3.83;;
10557;SDS011;5327;47.238;-2.304;2023-02-04T04:50:58;8.03;;;4.50;;
10557;SDS011;5327;47.238;-2.304;2023-02-04T04:53:24;4.50;;;3.63;;
10557;SDS011;5327;47.238;-2.304;2023-02-04T04:55:50;5.80;;;4.27;;
10557;SDS011;5327;47.238;-2.304;2023-02-04T04:58:16;5.80;;;4.17;;
10557;SDS011;5327;47.238;-2.304;2023-02-04T05:00:42;4.97;;;3.47;;
10557;SDS011;5327;47.238;-2.304;2023-02-04T05:03:08;4.00;;;3.60;;
10557;SDS011;5327;47.238;-2.304;2023-02-04T05:05:34;6.40;;;4.00;;
10557;SDS011;5327;47.238;-2.304;2023-02-04T05:08:04;8.70;;;4.40;;
10557;SDS011;5327;47.238;-2.304;2023-02-04T05:10:30;8.00;;;5.17;;
10557;SDS011;5327;47.238;-2.304;2023-02-04T05:12:56;8.27;;;5.10;;
10557;SDS011;5327;47.238;-2.304;2023-02-04T05:15:22;6.03;;;4.30;;
10557;SDS011;5327;47.238;-2.304;2023-02-04T05:17:48;5.03;;;4.53;;
10557;SDS011;5327;47.238;-2.304;2023-02-04T05:20:14;6.87;;;4.40;;
10557;SDS011;5327;47.238;-2.304;2023-02-04T05:22:41;5.27;;;3.90;;
10557;SDS011;5327;47.238;-2.304;2023-02-04T05:25:07;7.27;;;5.30;;
10557;SDS011;5327;47.238;-2.304;2023-02-04T05:27:33;6.20;;;4.37;;
10557;SDS011;5327;47.238;-2.304;2023-02-04T05:29:59;6.27;;;5.23;;
10557;SDS011;5327;47.238;-2.304;2023-02-04T05:32:25;4.87;;;4.40;;
10557;SDS011;5327;47.238;-2.304;2023-02-04T05:34:51;5.27;;;4.77;;
10557;SDS011;5327;47.238;-2.304;2023-02-04T05:37:17;4.40;;;4.00;;
10557;SDS011;5327;47.238;-2.304;2023-02-04T05:39:45;9.77;;;5.17;;
10557;SDS011;5327;47.238;-2.304;2023-02-04T05:42:11;6.80;;;4.57;;
10557;SDS011;5327;47.238;-2.304;2023-02-04T05:44:37;5.10;;;3.60;;
10557;SDS011;5327;47.238;-2.304;2023-02-04T05:47:03;6.03;;;4.83;;
10557;SDS011;5327;47.238;-2.304;2023-02-04T05:49:29;5.57;;;4.37;;
10557;SDS011;5327;47.238;-2.304;2023-02-04T05:51:55;7.30;;;5.00;;
10557;SDS011;5327;47.238;-2.304;2023-02-04T05:54:21;6.77;;;5.10;;
10557;SDS011;5327;47.238;-2.304;2023-02-04T05:56:47;8.20;;;5.10;;
10557;SDS011;5327;47.238;-2.304;2023-02-04T05:59:15;6.67;;;5.57;;
10557;SDS011;5327;47.238;-2.304;2023-02-04T06:01:41;5.70;;;4.40;;
10557;SDS011;5327;47.238;-2.304;2023-02-04T06:04:07;10.23;;;5.67;;
10557;SDS011;5327;47.238;-2.304;2023-02-04T06:06:34;6.37;;;5.40;;
10557;SDS011;5327;47.238;-2.304;2023-02-04T06:09:00;8.33;;;5.10;;
10557;SDS011;5327;47.238;-2.304;2023-02-04T06:11:26;6.87;;;4.80;;
10557;SDS011;5327;47.238;-2.304;2023-02-04T06:13:52;7.73;;;5.23;;
10557;SDS011;5327;47.238;-2.304;2023-02-04T06:16:18;9.60;;;5.07;;
10557;SDS011;5327;47.238;-2.304;2023-02-04T06:18:44;6.27;;;5.47;;
10557;SDS011;5327;47.238;-2.304;2023-02-04T06:21:10;7.60;;;5.00;;
10557;SDS011;5327;47.238;-2.304;2023-02-04T06:23:36;8.53;;;5.60;;
10557;SDS011;5327;47.238;-2.304;2023-02-04T06:26:02;8.67;;;5.77;;
10557;SDS011;5327;47.238;-2.304;2023-02-04T06:28:28;6.70;;;5.30;;
10557;SDS011;5327;47.238;-2.304;2023-02-04T06:30:54;10.87;;;5.70;;
10557;SDS011;5327;47.238;-2.304;2023-02-04T06:33:20;6.70;;;5.17;;
10557;SDS011;5327;47.238;-2.304;2023-02-04T06:35:48;5.53;;;5.03;;
10557;SDS011;5327;47.238;-2.304;2023-02-04T06:38:14;5.43;;;3.70;;
10557;SDS011;5327;47.238;-2.304;2023-02-04T06:40:40;5.43;;;4.47;;
10557;SDS011;5327;47.238;-2.304;2023-02-04T06:43:06;8.30;;;5.10;;
10557;SDS011;5327;47.238;-2.304;2023-02-04T06:45:33;8.17;;;5.83;;
10557;SDS011;5327;47.238;-2.304;2023-02-04T06:47:59;6.40;;;5.40;;
10557;SDS011;5327;47.238;-2.304;2023-02-04T06:50:25;8.43;;;4.70;;
10557;SDS011;5327;47.238;-2.304;2023-02-04T06:52:51;7.30;;;5.17;;
10557;SDS011;5327;47.238;-2.304;2023-02-04T06:55:18;8.93;;;5.50;;
10557;SDS011;5327;47.238;-2.304;2023-02-04T06:57:44;6.73;;;4.90;;
10557;SDS011;5327;47.238;-2.304;2023-02-04T07:00:10;5.33;;;4.53;;
10557;SDS011;5327;47.238;-2.304;2023-02-04T07:02:37;6.97;;;4.63;;
10557;SDS011;5327;47.238;-2.304;2023-02-04T07:05:03;9.43;;;5.50;;
10557;SDS011;5327;47.238;-2.304;2023-02-04T07:07:30;10.10;;;4.50;;
10557;SDS011;5327;47.238;-2.304;2023-02-04T07:09:56;5.53;;;4.03;;
10557;SDS011;5327;47.238;-2.304;2023-02-04T07:12:22;8.00;;;4.00;;
10557;SDS011;5327;47.238;-2.304;2023-02-04T07:14:48;9.63;;;5.30;;
10557;SDS011;5327;47.238;-2.304;2023-02-04T07:17:14;9.50;;;5.00;;
10557;SDS011;5327;47.238;-2.304;2023-02-04T07:19:40;7.80;;;4.03;;
10557;SDS011;5327;47.238;-2.304;2023-02-04T07:22:06;11.47;;;3.90;;
10557;SDS011;5327;47.238;-2.304;2023-02-04T07:24:32;5.60;;;3.40;;
10557;SDS011;5327;47.238;-2.304;2023-02-04T07:26:58;4.43;;;2.97;;
10557;SDS011;5327;47.238;-2.304;2023-02-04T07:29:24;4.90;;;3.23;;
10557;SDS011;5327;47.238;-2.304;2023-02-04T07:31:50;4.47;;;3.10;;
10557;SDS011;5327;47.238;-2.304;2023-02-04T07:34:17;5.00;;;3.03;;
10557;SDS011;5327;47.238;-2.304;2023-02-04T07:36:43;10.60;;;3.23;;
10557;SDS011;5327;47.238;-2.304;2023-02-04T07:39:09;9.10;;;3.43;;
10557;SDS011;5327;47.238;-2.304;2023-02-04T07:41:35;5.13;;;2.80;;
10557;SDS011;5327;47.238;-2.304;2023-02-04T07:44:01;5.53;;;3.07;;
10557;SDS011;5327;47.238;-2.304;2023-02-04T07:46:27;3.10;;;2.50;;
10557;SDS011;5327;47.238;-2.304;2023-02-04T07:48:53;11.20;;;3.87;;
10557;SDS011;5327;47.238;-2.304;2023-02-04T07:51:19;4.57;;;2.97;;
10557;SDS011;5327;47.238;-2.304;2023-02-04T07:53:45;6.87;;;3.80;;
10557;SDS011;5327;47.238;-2.304;2023-02-04T07:56:11;9.87;;;3.70;;
10557;SDS011;5327;47.238;-2.304;2023-02-04T07:58:37;8.23;;;3.50;;
10557;SDS011;5327;47.238;-2.304;2023-02-04T08:01:03;10.63;;;4.00;;
10557;SDS011;5327;47.238;-2.304;2023-02-04T08:03:29;6.20;;;3.17;;
10557;SDS011;5327;47.238;-2.304;2023-02-04T08:05:55;7.90;;;3.13;;
10557;SDS011;5327;47.238;-2.304;2023-02-04T08:08:21;8.60;;;3.70;;
10557;SDS011;5327;47.238;-2.304;2023-02-04T08:10:47;9.57;;;4.20;;
10557;SDS011;5327;47.238;-2.304;2023-02-04T08:13:13;10.70;;;4.20;;
10557;SDS011;5327;47.238;-2.304;2023-02-04T08:15:39;7.57;;;2.90;;
10557;SDS011;5327;47.238;-2.304;2023-02-04T08:18:06;4.03;;;2.20;;
10557;SDS011;5327;47.238;-2.304;2023-02-04T08:20:32;3.30;;;2.27;;
10557;SDS011;5327;47.238;-2.304;2023-02-04T08:23:00;5.63;;;3.13;;
10557;SDS011;5327;47.238;-2.304;2023-02-04T08:25:26;8.70;;;3.90;;
10557;SDS011;5327;47.238;-2.304;2023-02-04T08:27:53;4.83;;;3.50;;
10557;SDS011;5327;47.238;-2.304;2023-02-04T08:30:19;10.57;;;3.80;;
10557;SDS011;5327;47.238;-2.304;2023-02-04T08:32:45;3.27;;;2.83;;
10557;SDS011;5327;47.238;-2.304;2023-02-04T08:35:11;7.03;;;4.00;;
10557;SDS011;5327;47.238;-2.304;2023-02-04T08:37:37;4.10;;;2.80;;
10557;SDS011;5327;47.238;-2.304;2023-02-04T08:40:04;7.00;;;3.50;;
10557;SDS011;5327;47.238;-2.304;2023-02-04T08:42:31;3.90;;;2.60;;
10557;SDS011;5327;47.238;-2.304;2023-02-04T08:44:58;6.43;;;2.97;;
10557;SDS011;5327;47.238;-2.304;2023-02-04T08:47:24;3.37;;;2.67;;
10557;SDS011;5327;47.238;-2.304;2023-02-04T08:49:51;4.40;;;2.53;;
10557;SDS011;5327;47.238;-2.304;2023-02-04T08:52:17;10.27;;;2.43;;
10557;SDS011;5327;47.238;-2.304;2023-02-04T08:54:47;2.60;;;1.40;;
10557;SDS011;5327;47.238;-2.304;2023-02-04T08:57:13;3.33;;;1.63;;
10557;SDS011;5327;47.238;-2.304;2023-02-04T08:59:40;4.60;;;1.90;;
10557;SDS011;5327;47.238;-2.304;2023-02-04T09:02:06;3.20;;;1.57;;
10557;SDS011;5327;47.238;-2.304;2023-02-04T09:04:32;6.87;;;2.70;;
10557;SDS011;5327;47.238;-2.304;2023-02-04T09:06:58;5.80;;;2.53;;
10557;SDS011;5327;47.238;-2.304;2023-02-04T09:09:24;3.07;;;1.90;;
10557;SDS011;5327;47.238;-2.304;2023-02-04T09:11:50;4.37;;;1.93;;
10557;SDS011;5327;47.238;-2.304;2023-02-04T09:14:16;7.37;;;3.83;;
10557;SDS011;5327;47.238;-2.304;2023-02-04T09:16:42;4.33;;;2.57;;
10557;SDS011;5327;47.238;-2.304;2023-02-04T09:19:08;3.93;;;2.57;;
10557;SDS011;5327;47.238;-2.304;2023-02-04T09:21:37;8.60;;;3.10;;
10557;SDS011;5327;47.238;-2.304;2023-02-04T09:24:04;7.37;;;2.53;;
10557;SDS011;5327;47.238;-2.304;2023-02-04T09:26:30;6.73;;;2.80;;
10557;SDS011;5327;47.238;-2.304;2023-02-04T09:28:56;5.33;;;2.40;;
10557;SDS011;5327;47.238;-2.304;2023-02-04T09:31:22;3.83;;;2.00;;
10557;SDS011;5327;47.238;-2.304;2023-02-04T09:33:48;8.33;;;3.70;;
10557;SDS011;5327;47.238;-2.304;2023-02-04T09:36:14;3.00;;;1.57;;
10557;SDS011;5327;47.238;-2.304;2023-02-04T09:38:41;4.83;;;2.03;;
10557;SDS011;5327;47.238;-2.304;2023-02-04T09:41:07;6.10;;;2.60;;
10557;SDS011;5327;47.238;-2.304;2023-02-04T09:43:40;6.10;;;2.43;;
10557;SDS011;5327;47.238;-2.304;2023-02-04T09:46:14;4.50;;;2.13;;
10557;SDS011;5327;47.238;-2.304;2023-02-04T09:48:43;6.87;;;2.33;;
10557;SDS011;5327;47.238;-2.304;2023-02-04T09:51:09;12.30;;;3.17;;
10557;SDS011;5327;47.238;-2.304;2023-02-04T09:53:37;6.80;;;2.97;;
10557;SDS011;5327;47.238;-2.304;2023-02-04T09:56:03;10.23;;;2.73;;
10557;SDS011;5327;47.238;-2.304;2023-02-04T09:58:30;8.83;;;2.80;;
10557;SDS011;5327;47.238;-2.304;2023-02-04T10:00:59;10.63;;;2.73;;
10557;SDS011;5327;47.238;-2.304;2023-02-04T10:03:26;7.03;;;2.80;;
10557;SDS011;5327;47.238;-2.304;2023-02-04T10:05:52;8.33;;;3.03;;
10557;SDS011;5327;47.238;-2.304;2023-02-04T10:08:19;11.70;;;3.27;;
10557;SDS011;5327;47.238;-2.304;2023-02-04T10:10:46;7.43;;;3.10;;
10557;SDS011;5327;47.238;-2.304;2023-02-04T10:13:14;7.23;;;3.20;;
10557;SDS011;5327;47.238;-2.304;2023-02-04T10:15:41;12.70;;;3.47;;
10557;SDS011;5327;47.238;-2.304;2023-02-04T10:18:08;7.77;;;2.50;;
10557;SDS011;5327;47.238;-2.304;2023-02-04T10:20:34;7.70;;;2.80;;
10557;SDS011;5327;47.238;-2.304;2023-02-04T10:23:00;6.40;;;2.43;;
10557;SDS011;5327;47.238;-2.304;2023-02-04T10:25:26;8.03;;;2.60;;
10557;SDS011;5327;47.238;-2.304;2023-02-04T10:27:55;14.20;;;4.00;;
10557;SDS011;5327;47.238;-2.304;2023-02-04T10:30:26;6.07;;;2.10;;
10557;SDS011;5327;47.238;-2.304;2023-02-04T10:32:54;6.63;;;2.87;;
10557;SDS011;5327;47.238;-2.304;2023-02-04T10:35:20;8.70;;;2.67;;
10557;SDS011;5327;47.238;-2.304;2023-02-04T10:37:47;7.30;;;2.70;;
10557;SDS011;5327;47.238;-2.304;2023-02-04T10:42:55;6.50;;;2.83;;
10557;SDS011;5327;47.238;-2.304;2023-02-04T10:45:22;7.23;;;2.80;;
10557;SDS011;5327;47.238;-2.304;2023-02-04T10:47:49;6.50;;;3.00;;
10557;SDS011;5327;47.238;-2.304;2023-02-04T10:50:19;8.30;;;3.50;;
10557;SDS011;5327;47.238;-2.304;2023-02-04T10:52:54;7.90;;;3.50;;
10557;SDS011;5327;47.238;-2.304;2023-02-04T10:55:40;10.63;;;2.93;;
10557;SDS011;5327;47.238;-2.304;2023-02-04T10:58:08;9.57;;;3.40;;
10557;SDS011;5327;47.238;-2.304;2023-02-04T11:00:35;8.47;;;3.60;;
10557;SDS011;5327;47.238;-2.304;2023-02-04T11:03:02;9.30;;;3.10;;
10557;SDS011;5327;47.238;-2.304;2023-02-04T11:05:30;19.63;;;6.33;;
10557;SDS011;5327;47.238;-2.304;2023-02-04T11:07:57;7.43;;;3.20;;
10557;SDS011;5327;47.238;-2.304;2023-02-04T11:10:24;8.87;;;2.80;;
10557;SDS011;5327;47.238;-2.304;2023-02-04T11:18:07;7.77;;;3.47;;
10557;SDS011;5327;47.238;-2.304;2023-02-04T11:20:34;7.90;;;3.27;;
10557;SDS011;5327;47.238;-2.304;2023-02-04T11:25:48;12.27;;;3.50;;
10557;SDS011;5327;47.238;-2.304;2023-02-04T11:28:21;12.20;;;2.97;;
10557;SDS011;5327;47.238;-2.304;2023-02-04T11:30:57;7.10;;;3.10;;
10557;SDS011;5327;47.238;-2.304;2023-02-04T11:33:24;12.87;;;3.73;;
10557;SDS011;5327;47.238;-2.304;2023-02-04T11:38:44;11.37;;;3.77;;
10557;SDS011;5327;47.238;-2.304;2023-02-04T11:41:14;9.10;;;3.67;;
10557;SDS011;5327;47.238;-2.304;2023-02-04T11:43:41;12.90;;;5.20;;
10557;SDS011;5327;47.238;-2.304;2023-02-04T11:46:11;7.27;;;2.90;;
10557;SDS011;5327;47.238;-2.304;2023-02-04T11:48:38;9.90;;;3.73;;
10557;SDS011;5327;47.238;-2.304;2023-02-04T11:51:14;6.87;;;2.60;;
10557;SDS011;5327;47.238;-2.304;2023-02-04T11:53:41;7.77;;;2.87;;
10557;SDS011;5327;47.238;-2.304;2023-02-04T11:56:15;10.53;;;3.50;;
10557;SDS011;5327;47.238;-2.304;2023-02-04T11:58:42;9.83;;;3.60;;
10557;SDS011;5327;47.238;-2.304;2023-02-04T12:01:21;6.87;;;3.13;;
10557;SDS011;5327;47.238;-2.304;2023-02-04T12:03:50;9.73;;;4.10;;
10557;SDS011;5327;47.238;-2.304;2023-02-04T12:06:21;12.97;;;4.53;;
10557;SDS011;5327;47.238;-2.304;2023-02-04T12:08:47;11.63;;;3.70;;
10557;SDS011;5327;47.238;-2.304;2023-02-04T12:11:23;6.97;;;3.10;;
10557;SDS011;5327;47.238;-2.304;2023-02-04T12:13:54;11.83;;;3.80;;
10557;SDS011;5327;47.238;-2.304;2023-02-04T12:16:21;9.47;;;3.57;;
10557;SDS011;5327;47.238;-2.304;2023-02-04T12:18:47;9.80;;;3.63;;
10557;SDS011;5327;47.238;-2.304;2023-02-04T12:21:13;8.63;;;3.03;;
10557;SDS011;5327;47.238;-2.304;2023-02-04T12:23:39;8.87;;;3.30;;
10557;SDS011;5327;47.238;-2.304;2023-02-04T12:26:08;5.67;;;2.37;;
10557;SDS011;5327;47.238;-2.304;2023-02-04T12:28:34;4.17;;;1.87;;
10557;SDS011;5327;47.238;-2.304;2023-02-04T12:31:00;3.00;;;1.70;;
10557;SDS011;5327;47.238;-2.304;2023-02-04T12:33:27;3.10;;;2.00;;
10557;SDS011;5327;47.238;-2.304;2023-02-04T12:35:53;10.07;;;3.57;;
10557;SDS011;5327;47.238;-2.304;2023-02-04T12:38:19;10.33;;;3.43;;
10557;SDS011;5327;47.238;-2.304;2023-02-04T12:40:45;14.70;;;4.80;;
10557;SDS011;5327;47.238;-2.304;2023-02-04T12:43:11;8.10;;;3.57;;
10557;SDS011;5327;47.238;-2.304;2023-02-04T12:45:37;4.50;;;2.03;;
10557;SDS011;5327;47.238;-2.304;2023-02-04T12:48:05;3.57;;;1.90;;
10557;SDS011;5327;47.238;-2.304;2023-02-04T12:50:31;6.40;;;3.07;;
10557;SDS011;5327;47.238;-2.304;2023-02-04T12:52:58;4.73;;;2.17;;
10557;SDS011;5327;47.238;-2.304;2023-02-04T12:55:25;5.00;;;2.40;;
10557;SDS011;5327;47.238;-2.304;2023-02-04T12:57:52;9.93;;;2.53;;
10557;SDS011;5327;47.238;-2.304;2023-02-04T13:00:19;7.30;;;2.90;;
10557;SDS011;5327;47.238;-2.304;2023-02-04T13:02:45;8.50;;;3.30;;
10557;SDS011;5327;47.238;-2.304;2023-02-04T13:05:12;12.00;;;3.87;;
10557;SDS011;5327;47.238;-2.304;2023-02-04T13:07:38;4.50;;;2.30;;
10557;SDS011;5327;47.238;-2.304;2023-02-04T13:10:05;6.63;;;2.70;;
10557;SDS011;5327;47.238;-2.304;2023-02-04T13:12:31;2.97;;;2.20;;
10557;SDS011;5327;47.238;-2.304;2023-02-04T13:14:57;3.33;;;1.87;;
10557;SDS011;5327;47.238;-2.304;2023-02-04T13:17:23;6.07;;;2.37;;
10557;SDS011;5327;47.238;-2.304;2023-02-04T13:19:49;3.70;;;2.10;;
10557;SDS011;5327;47.238;-2.304;2023-02-04T13:22:15;4.77;;;2.50;;
10557;SDS011;5327;47.238;-2.304;2023-02-04T13:24:41;4.80;;;2.67;;
10557;SDS011;5327;47.238;-2.304;2023-02-04T13:27:07;3.83;;;2.30;;
10557;SDS011;5327;47.238;-2.304;2023-02-04T13:29:33;7.73;;;3.13;;
10557;SDS011;5327;47.238;-2.304;2023-02-04T13:31:59;5.83;;;2.50;;
10557;SDS011;5327;47.238;-2.304;2023-02-04T13:34:26;6.03;;;2.93;;
10557;SDS011;5327;47.238;-2.304;2023-02-04T13:36:52;6.70;;;2.90;;
10557;SDS011;5327;47.238;-2.304;2023-02-04T13:39:18;4.23;;;1.97;;
10557;SDS011;5327;47.238;-2.304;2023-02-04T13:41:44;7.93;;;3.03;;
10557;SDS011;5327;47.238;-2.304;2023-02-04T13:44:11;4.20;;;1.50;;
10557;SDS011;5327;47.238;-2.304;2023-02-04T13:46:37;4.50;;;2.30;;
10557;SDS011;5327;47.238;-2.304;2023-02-04T13:49:03;5.43;;;2.60;;
10557;SDS011;5327;47.238;-2.304;2023-02-04T13:51:29;3.10;;;2.70;;
10557;SDS011;5327;47.238;-2.304;2023-02-04T13:53:55;6.80;;;2.50;;
10557;SDS011;5327;47.238;-2.304;2023-02-04T13:56:22;4.00;;;2.30;;
10557;SDS011;5327;47.238;-2.304;2023-02-04T13:58:48;4.57;;;2.10;;
10557;SDS011;5327;47.238;-2.304;2023-02-04T14:01:14;3.57;;;2.00;;
10557;SDS011;5327;47.238;-2.304;2023-02-04T14:03:40;4.33;;;1.70;;
10557;SDS011;5327;47.238;-2.304;2023-02-04T14:06:07;8.47;;;3.00;;
10557;SDS011;5327;47.238;-2.304;2023-02-04T14:08:33;2.90;;;1.93;;
10557;SDS011;5327;47.238;-2.304;2023-02-04T14:10:59;4.70;;;2.37;;
10557;SDS011;5327;47.238;-2.304;2023-02-04T14:13:25;4.80;;;2.57;;
10557;SDS011;5327;47.238;-2.304;2023-02-04T14:15:51;5.50;;;2.50;;
10557;SDS011;5327;47.238;-2.304;2023-02-04T14:18:17;4.30;;;2.90;;
10557;SDS011;5327;47.238;-2.304;2023-02-04T14:20:43;5.90;;;4.00;;
10557;SDS011;5327;47.238;-2.304;2023-02-04T14:23:09;3.37;;;2.87;;
10557;SDS011;5327;47.238;-2.304;2023-02-04T14:25:38;3.67;;;3.20;;
10557;SDS011;5327;47.238;-2.304;2023-02-04T14:28:04;5.13;;;2.83;;
10557;SDS011;5327;47.238;-2.304;2023-02-04T14:30:31;4.33;;;2.93;;
10557;SDS011;5327;47.238;-2.304;2023-02-04T14:32:57;4.53;;;3.60;;
10557;SDS011;5327;47.238;-2.304;2023-02-04T14:35:23;5.93;;;3.77;;
10557;SDS011;5327;47.238;-2.304;2023-02-04T14:37:50;9.00;;;3.80;;
10557;SDS011;5327;47.238;-2.304;2023-02-04T14:40:16;4.07;;;2.40;;
10557;SDS011;5327;47.238;-2.304;2023-02-04T14:42:43;5.83;;;3.07;;
10557;SDS011;5327;47.238;-2.304;2023-02-04T14:45:10;4.67;;;2.97;;
10557;SDS011;5327;47.238;-2.304;2023-02-04T14:47:37;2.00;;;1.80;;
10557;SDS011;5327;47.238;-2.304;2023-02-04T14:50:04;3.67;;;2.23;;
10557;SDS011;5327;47.238;-2.304;2023-02-04T14:52:30;3.37;;;2.10;;
10557;SDS011;5327;47.238;-2.304;2023-02-04T14:54:56;3.50;;;2.00;;
10557;SDS011;5327;47.238;-2.304;2023-02-04T14:57:23;3.77;;;2.30;;